ADDS METAR Data INFO
IDs: Format: Raw Decoded Include TAF

Data at: 2316 UTC 15 Jul 2018

KBFM 152311Z 05010G16KT 10SM FEW015 SCT055 BKN110 27/24 A3006 RMK AO2 LTG DSNT ALQDS CB DSNT ALQDS VCSH NE-SW T02720239
KBFM 152253Z 02007KT 10SM VCTS FEW016 BKN050 BKN075 27/24 A3006 RMK AO2 LTG DSNT ALQDS TSB15E30 SLP178 OCNL LTGICCG ALQDS TS VC ALQDS VCSH ALQDS T02720239
KBFM 152236Z 35005KT 10SM VCTS SCT028CB BKN035 28/24 A3005 RMK AO2 LTG DSNT N-E TSB15E30 OCNL LTGICCG DSNT N-E TS VC N-E MOV S VCSH ALQDS T02780239
KBFM 152227Z 32007KT 10SM TS SCT028CB BKN035 27/24 A3004 RMK AO2 LTG DSNT ALQDS TSB15 OCNL LTGICCG ALQDS TS ALQDS MOV S VCSH ALQDS T02720239
KBFM 152216Z 33014KT 10SM TS BKN028 BKN035 OVC100 28/24 A3003 RMK AO2 LTG DSNT ALQDS TSB15 CB DSNT ALQDS VCSH N T02780239
KBFM 152205Z 34014G22KT 10SM VCTS FEW037 28/24 A3003 RMK AO2 LTG DSNT ALQDS CB DSNT ALQDS VCSH N T02830244
KBFM 152153Z 30012G19KT 10SM FEW037 30/24 A3002 RMK AO2 LTG DSNT ALQDS RAE09 SLP166 CB DSNT ALQDS P0000 T03000244
KBFM 152128Z 28007KT 10SM FEW037 32/26 A2999 RMK AO2 LTG DSNT ALQDS RAE09 CB DSNT ALQDS P0000 T03220261
KBFM 152113Z VRB04KT 9SM VCTS FEW030CB SCT037 33/27 A2998 RMK AO2 LTG DSNT ALQDS RAE09 OCNL LTGIC DSNT ALQDS TS VC DSNT ALQDS MOV LTL VCSH N AND E P0000 T03280267
KBFM 152053Z 22008KT 10SM -RA SCT030 32/26 A2999 RMK AO2 LTG DSNT ALQDS RAB48 TSB1955E12 SLP153 CB DSNT ALQDS P0000 60000 T03220261 56003
KBFM 152045Z COR VRB05KT 10SM SCT038 SCT065 32/26 A2999 RMK AO2 LTG DSNT ALQDS TSB1955E12 CB DSNT ALQDS VCSH S AND N T03220261
KBFM 152018Z 17008KT 10SM VCTS SCT038CB SCT065 33/26 A2999 RMK AO2 LTG DSNT SW-N TSB1955E12 OCNL LTGICCG SW-N TS VC SW-N MOV NW VCSH W-N T03280261
KBFM 152001Z 16008KT 10SM TS SCT038CB SCT065 34/26 A2999 RMK AO2 LTG DSNT W-N TSB1955 OCNL LTGICCG E AND W AND NW TS E AND W AND NW MOV LTL VCSH W-N T03440256
KBFM 151953Z 16010KT 10SM VCTS SCT038CB SCT065 34/26 A2999 RMK AO2 LTG DSNT E AND W AND NW SLP154 OCNL LTGICCG DSNT ALQDS TS VC DSNT ALQDS MOV LTL VCSH W-N T03390256
KBFM 151951Z 16010KT 10SM VCTS SCT038CB SCT065 34/26 A2999 RMK AO2 LTG DSNT ALQDS OCNL LTGICCG DSNT E AND SW AND W TSVC DSNT E AND SW AND W MOV LTL VCSH W-NE
KBFM 151853Z 16009KT 10SM FEW035 SCT050 34/25 A2999 RMK AO2 SLP156 TCU DSNT ALQDS VCSH SW-N T03440250
KBFM 151753Z 14006KT 10SM SCT032 34/26 A3003 RMK AO2 SLP167 TCU DSNT ALQDS T03390256 10339 20278 58014
KBFM 151653Z 12005KT 10SM FEW025 SCT035 33/26 A3005 RMK AO2 SLP176 TCU DSNT ALQDS T03280256
KBFM 151553Z 09005KT 10SM FEW027 SCT033 32/25 A3006 RMK AO2 SLP179 T03220250
KBFM 151453Z VRB03KT 10SM FEW070 32/26 A3007 RMK AO2 SLP181 T03220256 50004
KBFM 151353Z VRB03KT 10SM SCT070 31/26 A3008 RMK AO2 SLP185 T03110256
KBFM 151253Z 00000KT 10SM CLR 29/25 A3007 RMK AO2 SLP181 T02940250
KBFM 151153Z AUTO 00000KT 10SM CLR 28/26 A3005 RMK AO2 SLP177 T02780261 10278 20250 53009
KBFM 151144Z AUTO 00000KT 10SM CLR 27/26 A3006 RMK AO2 T02670256
KBFM 151053Z AUTO 21003KT 10SM CLR 26/26 A3004 RMK AO2 SLP172 T02560256
KBFM 150953Z AUTO 00000KT 7SM CLR 25/24 A3003 RMK AO2 SLP169 T02500244
KBFM 150853Z AUTO 00000KT 10SM CLR 26/25 A3003 RMK AO2 SLP167 T02560250 56011
KBFM 150753Z AUTO 00000KT 10SM CLR 26/25 A3003 RMK AO2 LTG DSNT S AND SW SLP169 T02610250
KBFM 150653Z AUTO 31003KT 10SM CLR 26/25 A3004 RMK AO2 LTG DSNT S AND SW SLP172 T02610250
KBFM 150553Z AUTO 31003KT 10SM CLR 27/25 A3006 RMK AO2 SLP178 T02670250 10322 20267 403390244 50007
KBFM 150453Z AUTO 00000KT 10SM CLR 28/26 A3006 RMK AO2 SLP180 T02780256
KBFM 150353Z AUTO 00000KT 10SM CLR 28/26 A3006 RMK AO2 SLP179 T02830261
KBFM 150253Z AUTO 22004KT 10SM CLR 29/26 A3004 RMK AO2 SLP171 T02940256 50002
KBFM 150153Z AUTO 00000KT 10SM CLR 29/24 A3005 RMK AO2 LTG DSNT N AND NW SLP175 T02940244
KBFM 150053Z AUTO 20003KT 10SM CLR 31/24 A3004 RMK AO2 SLP172 T03060244
KBFM 142353Z VRB03KT 10SM CLR 32/25 A3003 RMK AO2 SLP169 T03220250 10339 20322 53001
KBFM 142253Z 10SM CLR 33/25 A3002 RMK AO2 SLP164 T03280250
KBFM 142153Z 16009KT 10SM CLR 33/26 A3003 RMK AO2 SLP168 T03330261
KBFM 142053Z 15008KT 110V190 10SM CLR 33/27 A3003 RMK AO2 SLP168 T03330267 56024
KBFM 141953Z 16008KT 10SM CLR 33/26 A3005 RMK AO2 SLP176 T03330256
KBFM 141853Z 17009KT 10SM CLR 33/26 A3007 RMK AO2 SLP183 T03330256
KBFM 141753Z 14006KT 10SM CLR 33/24 A3010 RMK AO2 SLP192 T03330244 10333 20267 58006
KBFM 141653Z 14006KT 10SM FEW035 32/25 A3012 RMK AO2 SLP199 T03220250
KBFM 141553Z 12006KT 10SM SCT035 32/26 A3012 RMK AO2 SLP200 T03170261
KBFM 141453Z 10SM FEW025 32/25 A3012 RMK AO2 SLP198 T03220250 51007
KBFM 141353Z 00000KT 10SM FEW030 32/26 A3012 RMK AO2 SLP197 TCU DSNT S T03170256
KBFM 141253Z 28003KT 10SM FEW030 29/26 A3011 RMK AO2 SLP195 TCU DSNT S T02890261
KBFM 141153Z 00000KT 10SM FEW030 27/26 A3010 RMK AO2 SLP190 TCU DSNT SE-SW T02670261 10267 20244 53004